Aviation Digital Data Service (ADDS)

Output produced by METARs form (0620 UTC 19 February 2019)
found at http://www.aviationweather.gov/metar/data/
 
Forecast for: VEIM (IMPHAL/TULIHAL , IN)
Text: TAF VEIM 190500Z 1906/1915 27008KT 3000 HZ -RA FEW010 SCT018 BKN100
Forecast period: 0600 to 1200 UTC 19 February 2019
Forecast type: FROM: standard forecast or significant change
Winds: from the W (270 degrees) at 9 MPH (8 knots; 4.1 m/s)
Visibility: 1.86 miles (2.99 km)
Ceiling: 10000 feet AGL
Clouds: few clouds at 1000 feet AGL
scattered clouds at 1800 feet AGL
broken clouds at 10000 feet AGL
Weather: HZ -RA  (haze, light rain)
Text: BECMG 1912/1914 00000KT 2500 BR -RA
Forecast period: 1200 to 1500 UTC 19 February 2019
Forecast type: BECOMING: Conditions expected to become as follows by 1400 UTC 19 February 2019
Winds: calm
Visibility: 1.55 miles (2.49 km)
Ceiling: 10000 feet AGL
Clouds: few clouds at 1000 feet AGL
scattered clouds at 1800 feet AGL
broken clouds at 10000 feet AGL
Weather: BR -RA  (mist, light rain)